Time;durP1;ratioP1;P1;durP2;ratioP2;P2;SDS_P1;SDS_P2;PMS_P1;PMS_P2;Temp;Humidity;BMP_temperature;BMP_pressure;BME280_temperature;BME280_humidity;BME280_pressure;Samples;Min_cycle;Max_cycle;Signal;HPM_P1;HPM_P2
2021/10/06 00:00:00;;;;;;;9.55;2.50;;;;;;;;;;4303376;33;20148;-82
2021/10/06 00:02:32;;;;;;;10.98;2.40;;;;;;;;;;4303728;33;20174;-81
2021/10/06 00:05:06;;;;;;;9.70;3.60;;;;;;;;;;4303328;33;20504;-82
2021/10/06 00:07:37;;;;;;;6.78;2.10;;;;;;;;;;4302831;33;20160;-81
2021/10/06 00:10:12;;;;;;;15.80;3.28;;;;;;;;;;4297614;33;20141;-82
2021/10/06 00:12:37;;;;;;;7.45;2.50;;;;;;;;;;4287787;33;20265;-83
2021/10/06 00:15:04;;;;;;;6.43;1.80;;;;;;;;;;4288714;33;20561;-82
2021/10/06 00:17:38;;;;;;;12.90;2.33;;;;;;;;;;4287266;33;20589;-80
2021/10/06 00:20:11;;;;;;;10.68;2.22;;;;;;;;;;4287288;33;20168;-81
2021/10/06 00:22:45;;;;;;;13.20;2.58;;;;;;;;;;4287348;33;20153;-81
2021/10/06 00:25:10;;;;;;;6.60;1.77;;;;;;;;;;4288515;33;20145;-81
2021/10/06 00:27:36;;;;;;;8.43;1.60;;;;;;;;;;4286847;33;20577;-81
2021/10/06 00:30:01;;;;;;;6.82;1.40;;;;;;;;;;4302951;33;20183;-81
2021/10/06 00:32:51;;;;;;;5.15;1.40;;;;;;;;;;4302503;33;20136;-83
2021/10/06 00:35:44;;;;;;;5.57;1.20;;;;;;;;;;4301987;33;20157;-81
2021/10/06 00:38:09;;;;;;;9.50;1.00;;;;;;;;;;4301971;33;20166;-80
2021/10/06 00:40:35;;;;;;;6.12;1.08;;;;;;;;;;4303911;33;20371;-84
2021/10/06 00:43:06;;;;;;;7.90;1.55;;;;;;;;;;4307791;33;20484;-82
2021/10/06 00:45:31;;;;;;;8.40;1.65;;;;;;;;;;4303506;33;20187;-82
2021/10/06 00:47:56;;;;;;;7.18;1.20;;;;;;;;;;4300822;33;20571;-81
2021/10/06 00:50:31;;;;;;;4.93;1.20;;;;;;;;;;4301869;33;20203;-81
2021/10/06 00:52:56;;;;;;;6.78;1.25;;;;;;;;;;4302259;33;20575;-81
2021/10/06 00:55:27;;;;;;;9.65;1.00;;;;;;;;;;4303516;33;20133;-82
2021/10/06 00:57:55;;;;;;;9.23;1.23;;;;;;;;;;4302382;33;20156;-81
2021/10/06 01:00:20;;;;;;;7.22;1.12;;;;;;;;;;4302591;33;20199;-81
2021/10/06 01:02:54;;;;;;;5.68;0.90;;;;;;;;;;4301913;33;20167;-81
2021/10/06 01:05:36;;;;;;;5.22;0.90;;;;;;;;;;4302324;33;20141;-81
2021/10/06 01:08:08;;;;;;;8.63;1.27;;;;;;;;;;4301789;33;20152;-82
2021/10/06 01:10:33;;;;;;;7.25;1.37;;;;;;;;;;4301442;33;20211;-81
2021/10/06 01:13:02;;;;;;;3.90;0.73;;;;;;;;;;4301457;33;20144;-81
2021/10/06 01:15:28;;;;;;;8.05;1.17;;;;;;;;;;4301478;33;20212;-81
2021/10/06 01:17:56;;;;;;;6.10;0.93;;;;;;;;;;4313131;33;20156;-81
2021/10/06 01:20:30;;;;;;;5.30;1.02;;;;;;;;;;4304775;33;20521;-82
2021/10/06 01:23:30;;;;;;;6.37;0.98;;;;;;;;;;4301346;33;20151;-80
2021/10/06 01:25:56;;;;;;;5.60;1.12;;;;;;;;;;4300174;33;20636;-82
2021/10/06 01:28:21;;;;;;;6.78;1.00;;;;;;;;;;4300878;33;20164;-81
2021/10/06 01:30:47;;;;;;;4.55;0.98;;;;;;;;;;4301323;33;20187;-83
2021/10/06 01:33:12;;;;;;;4.95;0.90;;;;;;;;;;4301690;33;20212;-82
2021/10/06 01:35:38;;;;;;;10.35;1.42;;;;;;;;;;4301405;33;20176;-81
2021/10/06 01:38:12;;;;;;;6.97;1.00;;;;;;;;;;4301117;33;20171;-81
2021/10/06 01:40:38;;;;;;;5.80;1.17;;;;;;;;;;4301870;33;20132;-82
2021/10/06 01:43:03;;;;;;;7.05;1.10;;;;;;;;;;4302200;33;20128;-82
2021/10/06 01:45:34;;;;;;;3.85;1.10;;;;;;;;;;4300007;33;20230;-80
2021/10/06 01:48:12;;;;;;;5.75;0.90;;;;;;;;;;4292688;33;20141;-82
2021/10/06 01:50:39;;;;;;;2.78;1.00;;;;;;;;;;4303310;33;20259;-82
2021/10/06 01:53:46;;;;;;;6.00;1.23;;;;;;;;;;4305313;33;20222;-82
2021/10/06 01:56:23;;;;;;;4.07;0.88;;;;;;;;;;4300602;33;20160;-82
2021/10/06 01:58:59;;;;;;;5.37;0.93;;;;;;;;;;4315296;33;20198;-82
2021/10/06 02:01:25;;;;;;;5.20;1.10;;;;;;;;;;4347623;27;20243;-81
2021/10/06 02:03:53;;;;;;;6.60;1.08;;;;;;;;;;4339361;33;20568;-82
2021/10/06 02:06:18;;;;;;;5.80;1.00;;;;;;;;;;4331087;33;20628;-83
2021/10/06 02:08:43;;;;;;;3.55;1.00;;;;;;;;;;4331918;33;20148;-82
2021/10/06 02:11:46;;;;;;;5.87;1.05;;;;;;;;;;4403155;27;20190;-82
2021/10/06 02:14:11;;;;;;;5.85;0.82;;;;;;;;;;4345644;33;20131;-82
2021/10/06 02:17:08;;;;;;;4.82;0.90;;;;;;;;;;4345151;33;20155;-81
2021/10/06 02:19:42;;;;;;;5.43;0.90;;;;;;;;;;4349890;33;20245;-82
2021/10/06 02:22:10;;;;;;;5.05;0.70;;;;;;;;;;4356922;33;20130;-81
2021/10/06 02:24:35;;;;;;;4.45;0.82;;;;;;;;;;4355893;33;20156;-80
2021/10/06 02:27:10;;;;;;;4.80;0.90;;;;;;;;;;4353806;33;20147;-80
2021/10/06 02:29:41;;;;;;;4.87;0.60;;;;;;;;;;4352406;32;20201;-82
2021/10/06 02:32:06;;;;;;;4.10;0.70;;;;;;;;;;4352592;33;20159;-81
2021/10/06 02:34:31;;;;;;;5.22;0.90;;;;;;;;;;4350217;33;20135;-79
2021/10/06 02:36:57;;;;;;;3.75;0.90;;;;;;;;;;4345445;33;20182;-80
2021/10/06 02:39:22;;;;;;;4.93;1.12;;;;;;;;;;4345616;33;20179;-80
2021/10/06 02:41:54;;;;;;;10.30;1.10;;;;;;;;;;4344146;33;20178;-81
2021/10/06 02:44:29;;;;;;;4.72;0.98;;;;;;;;;;4344489;33;20147;-80
2021/10/06 02:47:01;;;;;;;9.40;1.20;;;;;;;;;;4344691;33;20147;-81
2021/10/06 02:49:32;;;;;;;6.37;1.00;;;;;;;;;;4344920;33;20187;-82
2021/10/06 02:52:04;;;;;;;7.22;1.35;;;;;;;;;;4345015;33;20234;-81
2021/10/06 02:54:29;;;;;;;6.75;1.10;;;;;;;;;;4344188;33;20293;-80
2021/10/06 02:57:01;;;;;;;7.93;1.20;;;;;;;;;;4344316;33;20152;-80
2021/10/06 02:59:26;;;;;;;6.35;0.85;;;;;;;;;;4344892;33;20135;-81
2021/10/06 03:01:52;;;;;;;5.22;1.12;;;;;;;;;;4344947;33;20189;-81
2021/10/06 03:04:17;;;;;;;6.15;0.90;;;;;;;;;;4343626;33;20193;-81
2021/10/06 03:06:42;;;;;;;7.73;1.40;;;;;;;;;;4344357;33;20206;-82
2021/10/06 03:09:11;;;;;;;5.57;1.40;;;;;;;;;;4344687;33;20236;-81
2021/10/06 03:11:37;;;;;;;8.15;1.10;;;;;;;;;;4346787;33;20583;-81
2021/10/06 03:14:11;;;;;;;8.32;1.70;;;;;;;;;;4348212;33;20143;-82
2021/10/06 03:16:36;;;;;;;8.48;1.20;;;;;;;;;;4347016;33;20187;-81
2021/10/06 03:19:01;;;;;;;7.60;1.20;;;;;;;;;;4347982;33;20630;-82
2021/10/06 03:21:27;;;;;;;7.85;1.65;;;;;;;;;;4359115;33;20119;-79
2021/10/06 03:23:52;;;;;;;7.70;1.73;;;;;;;;;;4348909;33;20210;-80
2021/10/06 03:26:17;;;;;;;4.28;1.30;;;;;;;;;;4347773;33;20505;-81
2021/10/06 03:28:42;;;;;;;8.88;1.40;;;;;;;;;;4347282;33;20191;-81
2021/10/06 03:31:08;;;;;;;3.95;1.33;;;;;;;;;;4347801;33;20139;-82
2021/10/06 03:33:33;;;;;;;5.78;1.55;;;;;;;;;;4347633;33;20478;-82
2021/10/06 03:35:59;;;;;;;2.97;0.98;;;;;;;;;;4347607;33;20155;-84
2021/10/06 03:38:27;;;;;;;4.32;0.90;;;;;;;;;;4346387;33;20163;-81
2021/10/06 03:41:05;;;;;;;6.35;1.48;;;;;;;;;;4346666;33;20504;-80
2021/10/06 03:43:30;;;;;;;8.00;1.55;;;;;;;;;;4347632;33;20775;-81
2021/10/06 03:45:55;;;;;;;6.90;1.12;;;;;;;;;;4346734;33;20205;-81
2021/10/06 03:48:29;;;;;;;8.05;1.42;;;;;;;;;;4450212;27;20246;-81
2021/10/06 03:51:08;;;;;;;7.47;1.80;;;;;;;;;;4330601;33;20146;-81
2021/10/06 03:53:33;;;;;;;7.60;1.40;;;;;;;;;;4332013;33;20516;-80
2021/10/06 03:55:58;;;;;;;8.57;1.75;;;;;;;;;;4331489;33;20571;-80
2021/10/06 03:58:26;;;;;;;11.30;2.03;;;;;;;;;;4331980;33;20136;-81
2021/10/06 04:01:07;;;;;;;3.97;1.60;;;;;;;;;;4331425;33;20171;-81
2021/10/06 04:03:35;;;;;;;10.00;1.40;;;;;;;;;;4331503;33;20144;-82
2021/10/06 04:06:00;;;;;;;5.12;1.20;;;;;;;;;;4331915;33;20616;-81
2021/10/06 04:08:25;;;;;;;6.97;1.27;;;;;;;;;;4332244;33;20164;-81
2021/10/06 04:10:50;;;;;;;5.43;1.08;;;;;;;;;;4331552;33;20178;-82
2021/10/06 04:13:16;;;;;;;7.87;1.83;;;;;;;;;;4331544;33;20609;-82
2021/10/06 04:15:41;;;;;;;7.07;1.42;;;;;;;;;;4332582;33;20144;-82
2021/10/06 04:18:06;;;;;;;9.63;1.53;;;;;;;;;;4331810;33;20199;-81
2021/10/06 04:20:32;;;;;;;4.28;1.37;;;;;;;;;;4331223;33;20245;-82
2021/10/06 04:22:57;;;;;;;7.35;1.20;;;;;;;;;;4331853;33;20226;-82
2021/10/06 04:25:22;;;;;;;7.12;1.33;;;;;;;;;;4331521;33;20194;-82
2021/10/06 04:27:47;;;;;;;9.18;1.40;;;;;;;;;;4332262;33;20613;-81
2021/10/06 04:30:13;;;;;;;7.87;1.42;;;;;;;;;;4332310;33;20182;-81
2021/10/06 04:32:39;;;;;;;8.35;1.70;;;;;;;;;;4331222;33;20162;-81
2021/10/06 04:35:05;;;;;;;6.20;1.77;;;;;;;;;;4331707;33;20154;-80
2021/10/06 04:37:30;;;;;;;10.30;2.40;;;;;;;;;;4331811;33;20198;-82
2021/10/06 04:39:55;;;;;;;9.75;2.35;;;;;;;;;;4330957;33;20144;-81
2021/10/06 04:42:20;;;;;;;10.63;2.03;;;;;;;;;;4331860;33;20169;-79
2021/10/06 04:44:45;;;;;;;8.38;1.80;;;;;;;;;;4332826;33;20135;-81
2021/10/06 04:47:10;;;;;;;9.45;2.03;;;;;;;;;;4337470;33;20452;-77
2021/10/06 04:49:36;;;;;;;10.43;2.30;;;;;;;;;;4340966;33;20160;-82
2021/10/06 04:52:01;;;;;;;9.43;3.22;;;;;;;;;;4335047;33;20311;-84
2021/10/06 04:54:27;;;;;;;8.65;2.12;;;;;;;;;;4331626;33;20194;-83
2021/10/06 04:56:52;;;;;;;11.02;2.83;;;;;;;;;;4332259;33;20998;-84
2021/10/06 04:59:17;;;;;;;11.73;2.75;;;;;;;;;;4331977;33;20532;-84
2021/10/06 05:01:42;;;;;;;10.73;1.93;;;;;;;;;;4331497;33;20185;-85
2021/10/06 05:04:07;;;;;;;10.93;2.08;;;;;;;;;;4331881;33;20578;-83
2021/10/06 05:06:33;;;;;;;14.55;2.70;;;;;;;;;;4331188;33;20216;-83
2021/10/06 05:08:58;;;;;;;10.52;1.77;;;;;;;;;;4330566;33;20152;-83
2021/10/06 05:11:24;;;;;;;10.45;2.15;;;;;;;;;;4355443;27;20195;-82
2021/10/06 05:13:49;;;;;;;13.95;2.28;;;;;;;;;;4345593;33;20185;-80
2021/10/06 05:16:14;;;;;;;12.10;2.80;;;;;;;;;;4332976;33;20221;-82
2021/10/06 05:18:39;;;;;;;12.13;1.98;;;;;;;;;;4346504;33;20170;-83
2021/10/06 05:21:05;;;;;;;9.10;1.77;;;;;;;;;;4346568;33;20191;-83
2021/10/06 05:23:30;;;;;;;7.87;1.52;;;;;;;;;;4352185;33;20232;-75
2021/10/06 05:26:11;;;;;;;13.00;2.03;;;;;;;;;;4354195;32;20494;-81
2021/10/06 05:28:37;;;;;;;12.20;2.25;;;;;;;;;;4346671;33;20162;-81
2021/10/06 05:31:05;;;;;;;13.62;2.25;;;;;;;;;;4344477;33;20481;-78
2021/10/06 05:33:38;;;;;;;11.18;2.40;;;;;;;;;;4344069;33;20471;-78
2021/10/06 05:36:05;;;;;;;10.38;2.10;;;;;;;;;;4351427;27;20300;-82
2021/10/06 05:38:30;;;;;;;10.68;2.42;;;;;;;;;;4335687;33;20144;-81
2021/10/06 05:40:55;;;;;;;12.52;2.50;;;;;;;;;;4346376;33;20257;-83
2021/10/06 05:43:24;;;;;;;15.03;2.60;;;;;;;;;;4345541;33;20162;-83
2021/10/06 05:45:58;;;;;;;11.30;2.65;;;;;;;;;;4341465;33;20283;-83
2021/10/06 05:48:23;;;;;;;12.95;2.80;;;;;;;;;;4344139;33;20139;-77
2021/10/06 05:50:48;;;;;;;13.43;2.90;;;;;;;;;;4343230;33;20580;-81
2021/10/06 05:53:26;;;;;;;13.70;2.90;;;;;;;;;;4345213;33;20163;-80
2021/10/06 05:55:51;;;;;;;13.70;2.70;;;;;;;;;;4343534;33;20147;-80
2021/10/06 05:58:18;;;;;;;13.57;2.78;;;;;;;;;;4343696;33;20194;-81
2021/10/06 06:00:43;;;;;;;18.75;2.62;;;;;;;;;;4344953;33;20206;-81
2021/10/06 06:03:09;;;;;;;8.23;2.72;;;;;;;;;;4344674;33;20657;-84
2021/10/06 06:05:37;;;;;;;9.68;2.60;;;;;;;;;;4345023;33;20143;-84
2021/10/06 06:08:03;;;;;;;16.77;4.35;;;;;;;;;;4345325;33;20143;-81
2021/10/06 06:10:28;;;;;;;15.80;3.60;;;;;;;;;;4344704;27;20253;-81
2021/10/06 06:12:53;;;;;;;12.25;2.50;;;;;;;;;;4332271;33;20552;-89
2021/10/06 06:15:18;;;;;;;14.68;2.62;;;;;;;;;;4333537;33;20159;-81
2021/10/06 06:17:46;;;;;;;9.23;2.42;;;;;;;;;;4331494;33;20144;-86
2021/10/06 06:20:12;;;;;;;10.98;2.47;;;;;;;;;;4329557;33;20213;-81
2021/10/06 06:22:38;;;;;;;11.85;2.37;;;;;;;;;;4342676;33;20190;-81
2021/10/06 06:25:04;;;;;;;11.38;2.80;;;;;;;;;;4339660;33;20410;-83
2021/10/06 06:27:29;;;;;;;11.60;2.22;;;;;;;;;;4316121;33;20228;-82
2021/10/06 06:29:55;;;;;;;8.55;2.22;;;;;;;;;;4337466;33;20151;-83
2021/10/06 06:32:21;;;;;;;7.82;1.98;;;;;;;;;;4330132;33;20217;-88
2021/10/06 06:34:46;;;;;;;8.68;2.55;;;;;;;;;;4329450;33;20174;-83
2021/10/06 06:37:13;;;;;;;17.87;5.30;;;;;;;;;;4330190;33;20143;-78
2021/10/06 06:39:38;;;;;;;15.80;2.65;;;;;;;;;;4329764;33;20188;-78
2021/10/06 06:42:03;;;;;;;13.90;2.15;;;;;;;;;;4330177;33;20539;-83
2021/10/06 06:44:28;;;;;;;8.23;1.75;;;;;;;;;;4333977;33;20236;-82
2021/10/06 06:46:53;;;;;;;9.05;2.12;;;;;;;;;;4332078;33;20156;-82
2021/10/06 06:49:19;;;;;;;13.60;2.40;;;;;;;;;;4332920;33;20559;-82
2021/10/06 06:51:44;;;;;;;9.98;2.20;;;;;;;;;;4332481;33;20140;-84
2021/10/06 06:54:09;;;;;;;7.15;1.65;;;;;;;;;;4332020;33;20140;-84
2021/10/06 06:56:39;;;;;;;12.10;2.10;;;;;;;;;;4332909;33;20152;-84
2021/10/06 06:59:06;;;;;;;19.83;5.68;;;;;;;;;;4332538;33;20168;-85
2021/10/06 07:01:31;;;;;;;10.50;1.80;;;;;;;;;;4331890;33;20155;-79
2021/10/06 07:03:58;;;;;;;13.80;2.25;;;;;;;;;;4332407;33;20174;-84
2021/10/06 07:06:24;;;;;;;7.35;1.67;;;;;;;;;;4333264;33;20536;-85
2021/10/06 07:08:50;;;;;;;6.22;1.62;;;;;;;;;;4320442;33;20207;-84
2021/10/06 07:11:15;;;;;;;10.80;1.90;;;;;;;;;;4333065;33;20198;-80
2021/10/06 07:13:42;;;;;;;8.73;2.15;;;;;;;;;;4332625;33;20148;-83
2021/10/06 07:16:08;;;;;;;13.07;2.10;;;;;;;;;;4333116;33;20176;-83
2021/10/06 07:18:33;;;;;;;12.77;2.22;;;;;;;;;;4332770;33;20217;-84
2021/10/06 07:20:58;;;;;;;6.97;1.90;;;;;;;;;;4319058;33;20526;-79
2021/10/06 07:23:23;;;;;;;9.70;1.98;;;;;;;;;;4330653;33;20245;-82
2021/10/06 07:25:49;;;;;;;11.25;2.33;;;;;;;;;;4330913;33;20631;-81
2021/10/06 07:28:14;;;;;;;11.52;2.65;;;;;;;;;;4345666;33;20140;-79
2021/10/06 07:30:42;;;;;;;8.40;2.35;;;;;;;;;;4333867;33;20198;-81
2021/10/06 07:33:07;;;;;;;18.67;2.85;;;;;;;;;;4326015;33;20199;-80
2021/10/06 07:35:34;;;;;;;19.40;3.08;;;;;;;;;;4318491;33;20179;-79
2021/10/06 07:38:05;;;;;;;15.40;3.00;;;;;;;;;;4317584;33;20271;-80
2021/10/06 07:40:36;;;;;;;8.80;1.90;;;;;;;;;;4327687;27;20195;-79
2021/10/06 07:43:07;;;;;;;7.65;1.75;;;;;;;;;;4331858;33;20140;-82
2021/10/06 07:45:33;;;;;;;8.80;1.20;;;;;;;;;;4331643;33;20206;-81
2021/10/06 07:47:58;;;;;;;4.47;1.70;;;;;;;;;;4349794;27;20232;-80
2021/10/06 07:50:24;;;;;;;3.53;1.42;;;;;;;;;;4325597;33;20584;-79
2021/10/06 07:52:49;;;;;;;5.18;1.20;;;;;;;;;;4317183;33;20210;-80
2021/10/06 07:55:15;;;;;;;4.40;1.13;;;;;;;;;;4318466;33;20415;-80
2021/10/06 07:57:40;;;;;;;3.90;1.35;;;;;;;;;;4317066;33;20242;-79
2021/10/06 08:00:07;;;;;;;4.32;1.23;;;;;;;;;;4318341;33;20214;-77
2021/10/06 08:02:32;;;;;;;6.37;1.62;;;;;;;;;;4323837;33;20254;-82
2021/10/06 08:04:57;;;;;;;4.30;1.33;;;;;;;;;;4318363;33;20251;-80
2021/10/06 08:07:22;;;;;;;3.40;1.30;;;;;;;;;;4331232;33;20168;-80
2021/10/06 08:09:48;;;;;;;8.82;2.00;;;;;;;;;;4328994;33;20152;-82
2021/10/06 08:12:14;;;;;;;7.78;1.92;;;;;;;;;;4317068;33;20166;-80
2021/10/06 08:14:39;;;;;;;10.43;2.22;;;;;;;;;;4317522;33;20145;-80
2021/10/06 08:17:04;;;;;;;19.33;4.10;;;;;;;;;;4327776;33;20222;-82
2021/10/06 08:19:30;;;;;;;17.50;3.17;;;;;;;;;;4331800;33;20166;-80
2021/10/06 08:21:55;;;;;;;14.15;2.47;;;;;;;;;;4331575;33;20190;-81
2021/10/06 08:24:20;;;;;;;21.60;3.60;;;;;;;;;;4322704;33;20183;-82
2021/10/06 08:26:46;;;;;;;16.35;3.60;;;;;;;;;;4316581;33;20133;-81
2021/10/06 08:29:11;;;;;;;19.65;4.10;;;;;;;;;;4324767;33;20241;-81
2021/10/06 08:31:46;;;;;;;14.25;4.10;;;;;;;;;;4331033;33;20151;-81
2021/10/06 08:34:29;;;;;;;17.23;4.78;;;;;;;;;;4329662;33;20143;-83
2021/10/06 08:36:55;;;;;;;22.65;4.90;;;;;;;;;;4331336;33;20182;-80
2021/10/06 08:39:32;;;;;;;17.98;3.87;;;;;;;;;;4330142;33;20168;-81
2021/10/06 08:45:12;;;;;;;7.72;1.90;;;;;;;;;;4330645;33;20207;-82
2021/10/06 08:47:38;;;;;;;13.77;3.15;;;;;;;;;;4316285;33;20192;-79
2021/10/06 08:50:04;;;;;;;9.75;3.75;;;;;;;;;;4327976;33;20179;-78
2021/10/06 08:52:49;;;;;;;13.15;3.87;;;;;;;;;;4315430;33;20207;-76
2021/10/06 08:55:38;;;;;;;12.35;3.47;;;;;;;;;;4315475;33;20191;-76
2021/10/06 08:58:15;;;;;;;13.10;2.85;;;;;;;;;;4328794;33;20148;-77
2021/10/06 09:01:17;;;;;;;9.52;2.45;;;;;;;;;;4326573;33;20197;-78
2021/10/06 09:03:51;;;;;;;7.28;2.00;;;;;;;;;;4319319;33;20250;-78
2021/10/06 09:06:23;;;;;;;9.25;2.53;;;;;;;;;;4316655;33;20198;-78
2021/10/06 09:08:58;;;;;;;22.37;4.85;;;;;;;;;;4327490;33;20202;-77
2021/10/06 09:11:30;;;;;;;16.00;3.42;;;;;;;;;;4330591;33;20541;-77
2021/10/06 09:14:06;;;;;;;15.00;3.60;;;;;;;;;;4324797;33;20227;-78
2021/10/06 09:20:01;;;;;;;13.55;3.87;;;;;;;;;;4326029;33;20550;-78
2021/10/06 09:22:51;;;;;;;17.90;4.57;;;;;;;;;;4337107;33;20163;-77
2021/10/06 09:25:27;;;;;;;28.38;5.65;;;;;;;;;;4334577;33;20209;-79
2021/10/06 09:28:26;;;;;;;18.42;4.90;;;;;;;;;;4327364;33;20249;-78
2021/10/06 09:31:10;;;;;;;21.48;6.37;;;;;;;;;;4323358;33;20565;-77
2021/10/06 09:33:55;;;;;;;19.52;3.42;;;;;;;;;;4323858;33;21489;-76
2021/10/06 09:36:35;;;;;;;16.45;3.87;;;;;;;;;;4320028;33;20163;-77
2021/10/06 09:39:10;;;;;;;15.35;3.15;;;;;;;;;;4328878;33;20143;-78
2021/10/06 09:41:43;;;;;;;12.50;2.53;;;;;;;;;;4322226;33;20159;-77
2021/10/06 09:44:13;;;;;;;14.00;2.20;;;;;;;;;;4316180;33;20572;-79
2021/10/06 09:46:47;;;;;;;10.02;1.90;;;;;;;;;;4326463;33;20152;-79
2021/10/06 09:49:16;;;;;;;10.20;2.47;;;;;;;;;;4329184;33;20171;-78
2021/10/06 09:51:41;;;;;;;13.27;2.42;;;;;;;;;;4329539;33;20166;-80
2021/10/06 09:54:07;;;;;;;8.25;1.75;;;;;;;;;;4330311;33;20206;-80
2021/10/06 09:56:40;;;;;;;10.27;1.85;;;;;;;;;;4328850;33;20182;-79
2021/10/06 09:59:06;;;;;;;8.38;1.85;;;;;;;;;;4329858;33;20556;-78
2021/10/06 10:01:36;;;;;;;13.73;2.08;;;;;;;;;;4329528;33;20195;-77
2021/10/06 10:06:53;;;;;;;11.73;2.10;;;;;;;;;;4328278;33;20190;-78
2021/10/06 10:09:22;;;;;;;9.63;1.92;;;;;;;;;;4329229;33;20546;-77
2021/10/06 10:11:53;;;;;;;11.02;2.15;;;;;;;;;;4329120;33;20178;-79
2021/10/06 10:17:20;;;;;;;11.18;2.10;;;;;;;;;;4328850;33;20139;-79
2021/10/06 10:20:01;;;;;;;15.90;2.67;;;;;;;;;;4329360;33;20154;-79
2021/10/06 10:22:37;;;;;;;16.10;2.90;;;;;;;;;;4329445;33;20632;-78
2021/10/06 10:28:09;;;;;;;21.62;3.10;;;;;;;;;;4329090;33;20154;-77
2021/10/06 10:30:38;;;;;;;13.90;2.42;;;;;;;;;;4329514;33;20158;-72
2021/10/06 10:33:41;;;;;;;13.07;2.28;;;;;;;;;;4328394;33;20182;-76
2021/10/06 10:36:44;;;;;;;12.18;2.45;;;;;;;;;;4329479;33;20143;-77
2021/10/06 10:39:45;;;;;;;16.45;2.20;;;;;;;;;;4329762;33;20138;-76
2021/10/06 10:42:11;;;;;;;17.05;2.40;;;;;;;;;;4329193;33;20179;-77
2021/10/06 10:44:40;;;;;;;13.68;2.53;;;;;;;;;;4330100;33;20222;-78
2021/10/06 10:47:06;;;;;;;12.95;1.95;;;;;;;;;;4329108;33;20144;-78
2021/10/06 10:49:53;;;;;;;10.23;2.30;;;;;;;;;;4329044;33;20271;-75
2021/10/06 10:52:19;;;;;;;9.35;2.03;;;;;;;;;;4329006;33;20182;-76
2021/10/06 10:54:47;;;;;;;10.57;1.70;;;;;;;;;;4330444;33;20620;-78
2021/10/06 10:57:28;;;;;;;5.90;1.65;;;;;;;;;;4328848;33;20139;-78
2021/10/06 10:59:57;;;;;;;10.25;2.17;;;;;;;;;;4328574;33;20282;-78
2021/10/06 11:02:28;;;;;;;8.70;1.70;;;;;;;;;;4329090;33;20586;-78
2021/10/06 11:04:54;;;;;;;5.20;1.35;;;;;;;;;;4328821;33;20586;-78
2021/10/06 11:07:21;;;;;;;7.22;1.40;;;;;;;;;;4328963;33;20211;-79
2021/10/06 11:09:48;;;;;;;10.43;1.80;;;;;;;;;;4329499;33;20167;-78
2021/10/06 11:12:14;;;;;;;7.37;1.30;;;;;;;;;;4329898;33;20152;-78
2021/10/06 11:14:40;;;;;;;7.78;1.37;;;;;;;;;;4329028;33;20222;-79
2021/10/06 11:17:16;;;;;;;6.82;1.42;;;;;;;;;;4330598;33;20490;-78
2021/10/06 11:23:06;;;;;;;10.48;2.00;;;;;;;;;;4329305;33;20179;-80
2021/10/06 11:25:40;;;;;;;8.23;1.60;;;;;;;;;;4321197;33;20160;-81
2021/10/06 11:28:31;;;;;;;6.28;1.40;;;;;;;;;;4328444;33;20255;-79
2021/10/06 11:30:57;;;;;;;11.57;1.65;;;;;;;;;;4329502;33;20414;-79
2021/10/06 11:33:32;;;;;;;7.03;1.40;;;;;;;;;;4331270;33;20199;-77
2021/10/06 11:36:30;;;;;;;5.87;1.10;;;;;;;;;;4330650;33;20283;-78
2021/10/06 11:39:09;;;;;;;7.15;1.90;;;;;;;;;;4334499;33;20206;-78
2021/10/06 11:44:51;;;;;;;4.53;1.00;;;;;;;;;;4330744;33;20192;-76
2021/10/06 11:47:55;;;;;;;6.68;1.35;;;;;;;;;;4329693;33;20160;-78
2021/10/06 11:50:36;;;;;;;6.68;2.00;;;;;;;;;;4291597;33;20153;-79
2021/10/06 11:53:01;;;;;;;8.00;1.50;;;;;;;;;;4295384;33;20577;-77
2021/10/06 11:55:27;;;;;;;8.20;1.50;;;;;;;;;;4294612;33;20239;-77
2021/10/06 11:57:52;;;;;;;6.18;1.20;;;;;;;;;;4294260;33;20187;-76
2021/10/06 12:00:18;;;;;;;7.03;1.33;;;;;;;;;;4294234;33;20161;-77
2021/10/06 12:02:43;;;;;;;5.35;1.30;;;;;;;;;;4292966;33;20183;-74
2021/10/06 12:05:09;;;;;;;3.47;1.30;;;;;;;;;;4294292;33;20152;-77
2021/10/06 12:07:34;;;;;;;7.62;1.37;;;;;;;;;;4294788;33;20188;-77
2021/10/06 12:10:01;;;;;;;7.45;1.70;;;;;;;;;;4292476;33;20381;-77
2021/10/06 12:12:31;;;;;;;5.57;1.60;;;;;;;;;;4294569;33;20569;-76
2021/10/06 12:18:10;;;;;;;10.15;1.60;;;;;;;;;;4329830;33;20542;-78
2021/10/06 12:24:09;;;;;;;7.30;1.27;;;;;;;;;;4328966;27;20242;-78
2021/10/06 12:27:11;;;;;;;5.30;1.10;;;;;;;;;;4321309;33;20163;-79
2021/10/06 12:29:42;;;;;;;10.07;1.65;;;;;;;;;;4322336;33;20254;-76
2021/10/06 12:44:50;;;;;;;10.70;2.12;;;;;;;;;;4439650;27;20185;-78
2021/10/06 12:50:11;;;;;;;7.87;1.48;;;;;;;;;;4272307;33;20199;-77
2021/10/06 12:52:36;;;;;;;11.10;2.50;;;;;;;;;;4272209;33;20200;-76
2021/10/06 12:55:31;;;;;;;6.07;1.52;;;;;;;;;;4264783;33;20439;-78
2021/10/06 13:00:46;;;;;;;13.73;3.12;;;;;;;;;;4272728;33;20179;-76
2021/10/06 13:03:29;;;;;;;8.75;2.60;;;;;;;;;;4273195;33;20145;-78
2021/10/06 13:05:54;;;;;;;10.48;2.60;;;;;;;;;;4272641;33;20167;-77
2021/10/06 13:08:19;;;;;;;11.40;3.20;;;;;;;;;;4277960;33;20280;-79
2021/10/06 13:10:44;;;;;;;11.00;2.65;;;;;;;;;;4279363;33;20157;-78
2021/10/06 13:13:10;;;;;;;12.73;3.30;;;;;;;;;;4274692;33;20286;-75
2021/10/06 13:15:35;;;;;;;14.93;2.87;;;;;;;;;;4262777;33;20333;-75
2021/10/06 13:18:01;;;;;;;13.20;3.35;;;;;;;;;;4241434;33;20225;-77
2021/10/06 13:20:26;;;;;;;13.93;3.17;;;;;;;;;;4235277;33;20527;-78
2021/10/06 13:22:51;;;;;;;11.57;2.30;;;;;;;;;;4258915;33;20137;-78
2021/10/06 13:25:48;;;;;;;10.70;2.20;;;;;;;;;;4269121;33;20160;-79
2021/10/06 13:45:53;;;;;;;8.38;1.70;;;;;;;;;;4299608;33;20169;-85
2021/10/06 13:51:19;;;;;;;9.10;1.55;;;;;;;;;;4256112;33;20180;-83
2021/10/06 13:54:34;;;;;;;7.18;1.48;;;;;;;;;;4283012;33;20152;-83
2021/10/06 13:57:02;;;;;;;5.70;1.50;;;;;;;;;;4260802;33;20536;-82
2021/10/06 13:59:40;;;;;;;;;;;;;;;;;;;;;
2021/10/06 14:02:27;;;;;;;10.20;2.40;;;;;;;;;;4272317;33;20179;-84
2021/10/06 14:05:08;;;;;;;8.82;1.60;;;;;;;;;;4286277;33;20194;-84
2021/10/06 14:07:37;;;;;;;12.98;2.53;;;;;;;;;;4287388;33;20163;-82
2021/10/06 14:10:08;;;;;;;13.70;2.50;;;;;;;;;;4292542;33;20661;-82
2021/10/06 14:22:47;;;;;;;8.35;1.83;;;;;;;;;;4301750;33;20617;-82
2021/10/06 14:25:49;;;;;;;10.68;1.80;;;;;;;;;;4255447;33;20216;-81
2021/10/06 14:29:05;;;;;;;;;;;;;;;;;;;;;
2021/10/06 14:31:48;;;;;;;14.40;3.33;;;;;;;;;;4230534;33;20181;-81
2021/10/06 14:34:36;;;;;;;14.50;2.33;;;;;;;;;;4256361;33;20608;-82
2021/10/06 14:37:27;;;;;;;13.60;2.95;;;;;;;;;;4280744;33;20271;-81
2021/10/06 14:46:32;;;;;;;11.43;2.15;;;;;;;;;;4230439;33;20251;-82
2021/10/06 14:49:03;;;;;;;13.00;2.42;;;;;;;;;;4268781;33;20219;-82
2021/10/06 14:51:57;;;;;;;12.10;2.25;;;;;;;;;;4280485;33;20180;-82
2021/10/06 15:00:49;;;;;;;14.95;2.40;;;;;;;;;;4266403;33;20185;-83
2021/10/06 15:12:14;;;;;;;16.50;3.20;;;;;;;;;;4269087;33;20183;-85
2021/10/06 15:15:20;;;;;;;14.20;2.75;;;;;;;;;;4277182;33;20175;-85
2021/10/06 15:23:58;;;;;;;13.85;3.40;;;;;;;;;;4274256;33;20156;-84
2021/10/06 15:27:02;;;;;;;12.50;3.03;;;;;;;;;;4262695;33;20199;-83
2021/10/06 15:29:54;;;;;;;10.27;3.15;;;;;;;;;;4274363;33;20157;-83
2021/10/06 15:33:08;;;;;;;13.98;3.12;;;;;;;;;;4275970;33;20185;-83
2021/10/06 15:35:46;;;;;;;;;;;;;;;;;;;;;
2021/10/06 15:38:20;;;;;;;9.25;2.10;;;;;;;;;;4232865;34;20164;-83
2021/10/06 15:41:31;;;;;;;;;;;;;;;;;;;;;
2021/10/06 15:44:08;;;;;;;7.32;2.50;;;;;;;;;;4277187;33;20191;-84
2021/10/06 15:49:36;;;;;;;11.20;2.20;;;;;;;;;;4287218;33;20211;-83
2021/10/06 15:53:22;;;;;;;10.55;2.00;;;;;;;;;;4291639;33;20129;-84
2021/10/06 15:55:36;;;;;;;11.00;2.15;;;;;;;;;;4280258;33;20177;-83
2021/10/06 15:58:11;;;;;;;9.68;2.58;;;;;;;;;;4271084;33;20207;-83
2021/10/06 16:04:00;;;;;;;;;;;;;;;;;;;;;
2021/10/06 16:06:44;;;;;;;11.12;2.33;;;;;;;;;;4290023;33;20163;-83
2021/10/06 16:09:18;;;;;;;7.82;1.90;;;;;;;;;;4290311;33;20155;-83
2021/10/06 16:12:05;;;;;;;;;;;;;;;;;;;;;
2021/10/06 16:14:53;;;;;;;9.35;1.90;;;;;;;;;;4289717;33;20174;-83
2021/10/06 16:20:42;;;;;;;10.75;2.30;;;;;;;;;;4286745;33;20652;-82
2021/10/06 16:26:24;;;;;;;5.78;1.98;;;;;;;;;;4258480;33;20216;-82
2021/10/06 16:29:06;;;;;;;;;;;;;;;;;;;;;
2021/10/06 16:32:03;;;;;;;;;;;;;;;;;;;;;
2021/10/06 16:35:19;;;;;;;9.77;2.30;;;;;;;;;;4202386;34;20171;-81
2021/10/06 16:37:54;;;;;;;8.68;1.90;;;;;;;;;;4212755;33;20214;-81
2021/10/06 16:40:47;;;;;;;9.60;1.90;;;;;;;;;;4259060;33;20156;-81
2021/10/06 16:43:25;;;;;;;9.95;2.42;;;;;;;;;;4227426;33;20229;-81
2021/10/06 16:45:58;;;;;;;10.60;2.10;;;;;;;;;;4286741;33;20164;-81
2021/10/06 16:48:49;;;;;;;10.63;1.70;;;;;;;;;;4275565;33;20179;-81
2021/10/06 16:51:39;;;;;;;6.93;1.80;;;;;;;;;;4288014;33;20173;-80
2021/10/06 16:54:10;;;;;;;9.32;1.90;;;;;;;;;;4275331;33;20183;-80
2021/10/06 16:56:38;;;;;;;13.55;2.60;;;;;;;;;;4289191;33;20133;-81
2021/10/06 16:59:05;;;;;;;14.87;2.00;;;;;;;;;;4275785;33;20164;-80
2021/10/06 17:01:31;;;;;;;10.23;2.15;;;;;;;;;;4288054;33;20561;-80
2021/10/06 17:04:01;;;;;;;12.30;1.90;;;;;;;;;;4288754;33;20204;-81
2021/10/06 17:06:29;;;;;;;12.77;2.55;;;;;;;;;;4275401;33;20224;-81
2021/10/06 17:09:02;;;;;;;10.88;2.10;;;;;;;;;;4286740;33;20199;-80
2021/10/06 17:11:28;;;;;;;12.02;2.40;;;;;;;;;;4288388;33;20167;-80